createdAt,value
2024-02-11T00:01:10.850Z,15.35
2024-02-11T00:03:58.280Z,16.30
2024-02-11T00:06:25.669Z,15.82
2024-02-11T00:08:53.036Z,18.42
2024-02-11T00:11:40.662Z,18.52
2024-02-11T00:14:28.342Z,19.13
2024-02-11T00:17:15.899Z,16.75
2024-02-11T00:20:04.304Z,18.60
2024-02-11T00:22:51.703Z,19.15
2024-02-11T00:25:40.801Z,19.25
2024-02-11T00:28:29.655Z,17.63
2024-02-11T00:31:17.010Z,18.02
2024-02-11T00:34:05.708Z,17.48
2024-02-11T00:36:53.956Z,15.55
2024-02-11T00:39:41.261Z,17.83
2024-02-11T00:42:29.372Z,12.25
2024-02-11T00:45:16.947Z,14.13
2024-02-11T00:48:05.211Z,14.00
2024-02-11T00:50:53.029Z,10.88
2024-02-11T00:53:40.316Z,17.02
2024-02-11T00:56:27.609Z,17.05
2024-02-11T00:59:16.118Z,18.73
2024-02-11T01:02:04.478Z,20.15
2024-02-11T01:04:52.967Z,21.38
2024-02-11T01:07:41.738Z,23.52
2024-02-11T01:10:32.977Z,18.77
2024-02-11T01:13:21.895Z,19.90
2024-02-11T01:16:09.428Z,18.48
2024-02-11T01:18:57.178Z,18.27
2024-02-11T01:21:45.669Z,15.77
2024-02-11T01:24:35.454Z,15.98
2024-02-11T01:27:22.791Z,16.85
2024-02-11T01:30:10.217Z,18.55
2024-02-11T01:32:59.130Z,16.70
2024-02-11T01:35:46.680Z,17.40
2024-02-11T01:38:33.909Z,17.63
2024-02-11T01:41:21.237Z,17.38
2024-02-11T01:44:08.500Z,17.15
2024-02-11T01:46:56.976Z,16.83
2024-02-11T01:49:44.644Z,16.50
2024-02-11T01:52:32.045Z,17.17
2024-02-11T01:55:20.708Z,17.00
2024-02-11T01:58:08.719Z,16.55
2024-02-11T02:00:56.592Z,16.20
2024-02-11T02:03:45.689Z,12.25
2024-02-11T02:06:34.419Z,16.42
2024-02-11T02:09:21.749Z,12.43
2024-02-11T02:12:09.787Z,16.40
2024-02-11T02:14:57.298Z,14.50
2024-02-11T02:17:47.824Z,14.50
2024-02-11T02:20:36.010Z,13.45
2024-02-11T02:23:23.281Z,16.30
2024-02-11T02:26:10.833Z,14.63
2024-02-11T02:28:58.130Z,15.32
2024-02-11T02:31:46.043Z,14.38
2024-02-11T02:34:33.459Z,14.32
2024-02-11T02:37:20.702Z,10.80
2024-02-11T02:40:08.933Z,13.57
2024-02-11T02:42:58.821Z,12.90
2024-02-11T02:45:46.422Z,10.88
2024-02-11T02:48:33.761Z,13.25
2024-02-11T02:51:20.993Z,11.65
2024-02-11T02:54:08.276Z,10.80
2024-02-11T02:56:56.112Z,9.95
2024-02-11T02:59:43.720Z,9.73
2024-02-11T03:02:30.882Z,9.18
2024-02-11T03:05:18.382Z,8.05
2024-02-11T03:08:07.143Z,7.97
2024-02-11T03:10:54.627Z,8.55
2024-02-11T03:13:44.316Z,5.95
2024-02-11T03:16:31.882Z,6.10
2024-02-11T03:19:19.570Z,3.80
2024-02-11T03:22:06.832Z,3.53
2024-02-11T03:24:54.229Z,3.05
2024-02-11T03:31:20.990Z,1.70
2024-02-11T03:34:08.354Z,1.73
2024-02-11T03:36:55.732Z,0.98
2024-02-11T03:39:43.111Z,1.20
2024-02-11T03:42:30.298Z,0.98
2024-02-11T03:45:20.084Z,0.90
2024-02-11T03:48:08.715Z,0.80
2024-02-11T03:50:56.144Z,0.60
2024-02-11T03:53:44.191Z,0.65
2024-02-11T03:56:31.386Z,0.68
2024-02-11T03:59:18.621Z,0.65
2024-02-11T04:02:06.036Z,0.60
2024-02-11T04:04:55.487Z,0.60
2024-02-11T04:07:46.908Z,0.80
2024-02-11T04:10:37.892Z,0.73
2024-02-11T04:13:26.956Z,0.73
2024-02-11T04:16:18.781Z,0.80
2024-02-11T04:19:06.638Z,1.20
2024-02-11T04:21:53.941Z,0.85
2024-02-11T04:24:48.020Z,1.25
2024-02-11T04:27:41.594Z,0.77
2024-02-11T04:30:29.521Z,1.30
2024-02-11T04:33:22.328Z,1.20
2024-02-11T04:36:14.663Z,0.93
2024-02-11T04:39:08.390Z,1.48
2024-02-11T04:41:56.743Z,1.50
2024-02-11T04:44:43.976Z,1.45
2024-02-11T04:47:31.195Z,1.67
2024-02-11T04:50:18.950Z,2.67
2024-02-11T04:53:09.834Z,2.53
2024-02-11T04:55:58.895Z,2.35
2024-02-11T04:58:46.399Z,2.90
2024-02-11T05:01:33.950Z,2.25
2024-02-11T05:04:21.206Z,2.63
2024-02-11T05:07:09.021Z,2.05
2024-02-11T05:09:56.445Z,1.85
2024-02-11T05:12:45.910Z,1.50
2024-02-11T05:15:33.543Z,2.17
2024-02-11T05:18:21.381Z,2.22
2024-02-11T05:21:11.870Z,2.38
2024-02-11T05:23:59.957Z,2.07
2024-02-11T05:26:47.288Z,2.55
2024-02-11T05:29:34.473Z,1.65
2024-02-11T05:32:21.700Z,2.63
2024-02-11T05:35:11.029Z,1.83
2024-02-11T05:37:59.379Z,2.03
2024-02-11T05:40:49.342Z,2.40
2024-02-11T05:43:37.183Z,2.90
2024-02-11T05:46:24.546Z,2.40
2024-02-11T05:49:12.702Z,1.77
2024-02-11T05:52:00.063Z,1.90
2024-02-11T05:54:49.225Z,1.98
2024-02-11T05:57:42.685Z,1.73
2024-02-11T06:00:33.033Z,2.50
2024-02-11T06:03:22.387Z,2.25
2024-02-11T06:06:09.959Z,2.00
2024-02-11T06:08:58.472Z,2.22
2024-02-11T06:11:45.898Z,1.90
2024-02-11T06:14:34.650Z,2.30
2024-02-11T06:17:22.259Z,1.73
2024-02-11T06:20:16.260Z,2.03
2024-02-11T06:23:06.600Z,1.95
2024-02-11T06:25:58.472Z,2.50
2024-02-11T06:28:46.036Z,1.65
2024-02-11T06:31:33.230Z,2.78
2024-02-11T06:34:25.810Z,2.38
2024-02-11T06:37:14.089Z,2.30
2024-02-11T06:40:01.354Z,2.13
2024-02-11T06:42:48.869Z,3.22
2024-02-11T06:45:36.065Z,1.73
2024-02-11T06:48:24.686Z,2.15
2024-02-11T06:51:12.244Z,2.53
2024-02-11T06:53:59.455Z,2.83
2024-02-11T06:56:48.624Z,3.10
2024-02-11T06:59:35.959Z,2.70
2024-02-11T07:02:25.347Z,2.90
2024-02-11T07:05:17.603Z,2.25
2024-02-11T07:08:08.255Z,1.70
2024-02-11T07:10:56.236Z,2.20
2024-02-11T07:13:44.772Z,2.55
2024-02-11T07:16:32.796Z,2.20
2024-02-11T07:19:20.087Z,2.13
2024-02-11T07:22:07.429Z,2.38
2024-02-11T07:24:55.235Z,2.00
2024-02-11T07:27:42.904Z,2.22
2024-02-11T07:30:32.315Z,1.48
2024-02-11T07:33:20.638Z,2.30
2024-02-11T07:36:08.672Z,2.85
2024-02-11T07:38:56.934Z,1.88
2024-02-11T07:41:46.978Z,3.00
2024-02-11T07:44:34.246Z,2.60
2024-02-11T07:47:21.959Z,2.90
2024-02-11T07:50:16.072Z,2.60
2024-02-11T07:53:06.880Z,2.92
2024-02-11T07:55:54.335Z,2.20
2024-02-11T07:58:42.707Z,3.30
2024-02-11T08:01:30.061Z,3.00
2024-02-11T08:04:18.242Z,2.50
2024-02-11T08:07:05.824Z,2.95
2024-02-11T08:09:54.624Z,2.28
2024-02-11T08:12:42.007Z,2.08
2024-02-11T08:15:29.342Z,2.53
2024-02-11T08:18:18.700Z,2.70
2024-02-11T08:21:06.450Z,3.20
2024-02-11T08:23:54.232Z,3.55
2024-02-11T08:26:42.605Z,2.80
2024-02-11T08:29:29.879Z,1.95
2024-02-11T08:32:17.158Z,2.30
2024-02-11T08:35:05.720Z,2.20
2024-02-11T08:37:53.946Z,2.88
2024-02-11T08:40:43.279Z,2.70
2024-02-11T08:43:30.955Z,2.70
2024-02-11T08:46:18.433Z,3.05
2024-02-11T08:49:06.363Z,2.85
2024-02-11T08:51:54.686Z,2.20
2024-02-11T08:54:42.225Z,2.40
2024-02-11T08:57:29.839Z,2.47
2024-02-11T09:00:19.240Z,2.72
2024-02-11T09:03:06.494Z,2.33
2024-02-11T09:05:53.916Z,1.95
2024-02-11T09:08:41.847Z,2.83
2024-02-11T09:11:30.619Z,3.90
2024-02-11T09:14:18.828Z,2.30
2024-02-11T09:17:09.083Z,2.20
2024-02-11T09:19:56.454Z,2.03
2024-02-11T09:23:01.427Z,2.90
2024-02-11T09:26:09.914Z,2.35
2024-02-11T09:29:18.413Z,2.35
2024-02-11T09:32:26.339Z,2.78
2024-02-11T09:35:34.303Z,2.42
2024-02-11T09:38:42.077Z,2.70
2024-02-11T09:41:51.396Z,2.50
2024-02-11T09:45:00.095Z,3.15
2024-02-11T09:48:10.299Z,2.58
2024-02-11T09:51:20.155Z,2.75
2024-02-11T09:54:30.438Z,3.50
2024-02-11T09:57:38.941Z,3.17
2024-02-11T10:00:46.851Z,3.00
2024-02-11T10:03:58.906Z,3.38
2024-02-11T10:07:11.515Z,2.97
2024-02-11T10:10:19.436Z,3.30
2024-02-11T10:13:27.354Z,3.42
2024-02-11T10:16:36.494Z,3.20
2024-02-11T10:19:45.374Z,3.40
2024-02-11T10:22:53.268Z,3.30
2024-02-11T10:26:01.257Z,3.70
2024-02-11T10:29:09.586Z,2.97
2024-02-11T10:32:17.546Z,3.38
2024-02-11T10:35:28.051Z,3.40
2024-02-11T10:38:36.215Z,3.72
2024-02-11T10:41:44.623Z,3.50
2024-02-11T10:44:52.629Z,3.83
2024-02-11T10:48:00.806Z,3.40
2024-02-11T10:51:16.243Z,3.28
2024-02-11T10:54:26.459Z,2.92
2024-02-11T10:57:50.820Z,3.00
2024-02-11T11:01:01.921Z,3.47
2024-02-11T11:04:18.785Z,3.60
2024-02-11T11:07:30.810Z,3.50
2024-02-11T11:10:40.975Z,3.92
2024-02-11T11:13:50.386Z,3.05
2024-02-11T11:17:04.274Z,3.70
2024-02-11T11:20:15.356Z,3.15
2024-02-11T11:23:28.312Z,3.08
2024-02-11T11:26:36.615Z,3.50
2024-02-11T11:29:33.482Z,3.40
2024-02-11T11:32:23.704Z,3.42
2024-02-11T11:35:13.339Z,3.17
2024-02-11T11:38:02.314Z,3.38
2024-02-11T11:40:52.345Z,3.60
2024-02-11T11:43:39.788Z,3.40
2024-02-11T11:46:28.036Z,3.65
2024-02-11T11:49:15.494Z,3.20
2024-02-11T11:52:04.351Z,2.63
2024-02-11T11:54:51.677Z,3.25
2024-02-11T11:57:39.101Z,19.08
2024-02-11T12:00:26.447Z,3.85
2024-02-11T12:03:13.732Z,3.20
2024-02-11T12:06:01.644Z,2.70
2024-02-11T12:08:49.028Z,3.17
2024-02-11T12:11:36.910Z,2.75
2024-02-11T12:14:24.599Z,2.80
2024-02-11T12:17:12.391Z,2.92
2024-02-11T12:20:01.543Z,3.47
2024-02-11T12:22:49.049Z,3.40
2024-02-11T12:25:36.770Z,3.13
2024-02-11T12:28:28.068Z,3.20
2024-02-11T12:31:16.156Z,3.35
2024-02-11T12:34:07.081Z,3.75
2024-02-11T12:37:04.378Z,4.28
2024-02-11T12:39:55.587Z,3.30
2024-02-11T12:42:45.915Z,3.30
2024-02-11T12:45:33.434Z,7.78
2024-02-11T12:48:20.893Z,3.47
2024-02-11T12:51:12.666Z,3.22
2024-02-11T12:54:00.162Z,5.15
2024-02-11T12:56:28.474Z,2.65
2024-02-11T12:58:59.989Z,2.80
2024-02-11T13:02:04.882Z,2.67
2024-02-11T13:04:35.549Z,2.90
2024-02-11T13:07:02.993Z,3.05
2024-02-11T13:10:11.840Z,2.72
2024-02-11T13:13:20.792Z,2.97
2024-02-11T13:16:30.257Z,2.95
2024-02-11T13:19:39.443Z,2.55
2024-02-11T13:22:50.615Z,2.10
2024-02-11T13:25:39.741Z,2.80
2024-02-11T13:28:27.161Z,2.45
2024-02-11T13:31:23.781Z,2.20
2024-02-11T13:34:33.116Z,3.83
2024-02-11T13:37:29.420Z,1.90
2024-02-11T13:40:16.953Z,1.95
2024-02-11T13:43:04.768Z,2.10
2024-02-11T13:45:52.088Z,2.70
2024-02-11T13:48:43.610Z,2.33
2024-02-11T13:51:31.491Z,2.03
2024-02-11T13:54:18.897Z,2.10
2024-02-11T13:57:06.201Z,1.80
2024-02-11T13:59:54.168Z,2.97
2024-02-11T14:02:41.630Z,1.73
2024-02-11T14:05:29.246Z,1.58
2024-02-11T14:08:18.082Z,2.10
2024-02-11T14:11:06.014Z,1.50
2024-02-11T14:13:53.373Z,1.77
2024-02-11T14:16:41.312Z,1.60
2024-02-11T14:19:28.836Z,1.60
2024-02-11T14:22:16.981Z,1.73
2024-02-11T14:25:04.961Z,1.60
2024-02-11T14:27:52.665Z,1.52
2024-02-11T14:30:40.276Z,1.75
2024-02-11T14:33:29.404Z,1.35
2024-02-11T14:36:18.771Z,2.70
2024-02-11T14:39:09.049Z,2.80
2024-02-11T14:41:57.015Z,1.30
2024-02-11T14:44:46.835Z,1.33
2024-02-11T14:47:42.571Z,1.60
2024-02-11T14:50:13.735Z,1.35
2024-02-11T14:53:02.106Z,1.90
2024-02-11T14:55:50.461Z,2.42
2024-02-11T14:58:39.784Z,1.42
2024-02-11T15:01:29.251Z,1.45
2024-02-11T15:04:16.655Z,1.42
2024-02-11T15:07:06.282Z,1.90
2024-02-11T15:09:57.333Z,2.00
2024-02-11T15:12:46.220Z,1.40
2024-02-11T15:15:33.819Z,2.05
2024-02-11T15:18:21.121Z,1.50
2024-02-11T15:21:10.449Z,1.35
2024-02-11T15:23:57.866Z,1.88
2024-02-11T15:26:45.751Z,1.40
2024-02-11T15:29:33.424Z,2.10
2024-02-11T15:32:20.741Z,1.50
2024-02-11T15:35:08.295Z,1.83
2024-02-11T15:37:56.048Z,1.83
2024-02-11T15:40:44.588Z,2.00
2024-02-11T15:43:32.484Z,1.70
2024-02-11T15:46:19.838Z,1.90
2024-02-11T15:49:09.763Z,1.30
2024-02-11T15:51:58.625Z,2.10
2024-02-11T15:54:47.108Z,1.38
2024-02-11T15:57:35.848Z,1.70
2024-02-11T16:00:25.106Z,1.80
2024-02-11T16:03:17.074Z,1.27
2024-02-11T16:06:05.407Z,1.20
2024-02-11T16:08:53.111Z,1.17
2024-02-11T16:11:42.446Z,1.20
2024-02-11T16:14:32.867Z,1.60
2024-02-11T16:17:20.475Z,1.30
2024-02-11T16:20:21.637Z,1.50
2024-02-11T16:23:12.028Z,1.50
2024-02-11T16:26:01.773Z,5.50
2024-02-11T16:28:51.407Z,3.97
2024-02-11T16:31:48.239Z,1.52
2024-02-11T16:34:41.652Z,1.80
2024-02-11T16:37:29.383Z,1.25
2024-02-11T16:40:20.926Z,1.20
2024-02-11T16:43:13.885Z,1.40
2024-02-11T16:46:01.250Z,1.33
2024-02-11T16:48:50.262Z,1.23
2024-02-11T16:51:37.608Z,1.48
2024-02-11T16:54:24.856Z,1.55
2024-02-11T16:57:12.115Z,1.50
2024-02-11T16:59:59.647Z,2.70
2024-02-11T17:02:48.798Z,4.35
2024-02-11T17:05:36.811Z,2.20
2024-02-11T17:08:24.213Z,2.10
2024-02-11T17:11:12.436Z,1.85
2024-02-11T17:14:00.432Z,1.58
2024-02-11T17:16:48.631Z,2.00
2024-02-11T17:19:36.021Z,1.33
2024-02-11T17:22:23.407Z,1.60
2024-02-11T17:25:10.613Z,1.38
2024-02-11T17:27:59.121Z,1.33
2024-02-11T17:30:46.868Z,1.30
2024-02-11T17:33:44.756Z,1.40
2024-02-11T17:36:17.229Z,1.58
2024-02-11T17:38:49.776Z,1.25
2024-02-11T17:41:20.257Z,1.60
2024-02-11T17:43:48.106Z,1.30
2024-02-11T17:46:15.976Z,1.45
2024-02-11T17:48:45.080Z,1.48
2024-02-11T17:51:12.606Z,1.85
2024-02-11T17:53:46.980Z,1.40
2024-02-11T17:56:17.978Z,1.30
2024-02-11T17:58:47.926Z,1.27
2024-02-11T18:01:18.846Z,1.10
2024-02-11T18:06:15.816Z,1.40
2024-02-11T18:08:47.028Z,1.40
2024-02-11T18:11:14.565Z,1.30
2024-02-11T18:13:41.857Z,1.30
2024-02-11T18:16:09.727Z,1.48
2024-02-11T18:18:39.141Z,1.38
2024-02-11T18:21:06.792Z,1.30
2024-02-11T18:23:36.839Z,1.90
2024-02-11T18:26:09.350Z,1.50
2024-02-11T18:28:46.519Z,3.72
2024-02-11T18:31:15.376Z,1.65
2024-02-11T18:33:43.438Z,1.60
2024-02-11T18:36:11.006Z,1.58
2024-02-11T18:38:38.819Z,3.47
2024-02-11T18:41:06.373Z,1.90
2024-02-11T18:43:34.577Z,1.67
2024-02-11T18:46:03.445Z,1.50
2024-02-11T18:48:30.952Z,1.30
2024-02-11T18:50:58.392Z,2.83
2024-02-11T18:53:26.296Z,1.60
2024-02-11T18:55:55.007Z,1.10
2024-02-11T18:58:22.299Z,1.30
2024-02-11T19:00:52.051Z,1.10
2024-02-11T19:03:19.524Z,2.90
2024-02-11T19:05:47.028Z,5.30
2024-02-11T19:08:14.958Z,1.73
2024-02-11T19:10:43.000Z,1.70
2024-02-11T19:13:11.473Z,1.90
2024-02-11T19:15:38.720Z,1.40
2024-02-11T19:18:06.173Z,1.60
2024-02-11T19:20:33.817Z,1.60
2024-02-11T19:23:03.151Z,1.20
2024-02-11T19:25:31.777Z,1.50
2024-02-11T19:27:59.038Z,1.50
2024-02-11T19:30:27.753Z,1.65
2024-02-11T19:32:55.385Z,1.40
2024-02-11T19:35:22.756Z,1.58
2024-02-11T19:37:50.127Z,1.70
2024-02-11T19:40:17.603Z,1.50
2024-02-11T19:42:45.661Z,1.20
2024-02-11T19:45:15.338Z,2.03
2024-02-11T19:47:44.553Z,1.70
2024-02-11T19:50:14.709Z,1.60
2024-02-11T19:52:44.636Z,1.60
2024-02-11T19:55:13.038Z,1.92
2024-02-11T19:57:43.726Z,1.60
2024-02-11T20:00:13.117Z,1.50
2024-02-11T20:02:41.405Z,1.40
2024-02-11T20:05:14.224Z,1.10
2024-02-11T20:07:42.609Z,4.60
2024-02-11T20:10:10.855Z,1.50
2024-02-11T20:12:39.223Z,1.52
2024-02-11T20:15:07.537Z,1.55
2024-02-11T20:17:36.147Z,1.50
2024-02-11T20:20:07.306Z,1.63
2024-02-11T20:22:35.281Z,2.22
2024-02-11T20:25:02.616Z,1.92
2024-02-11T20:27:30.132Z,1.65
2024-02-11T20:29:57.746Z,1.40
2024-02-11T20:32:25.331Z,1.63
2024-02-11T20:34:52.835Z,2.13
2024-02-11T20:37:21.273Z,1.40
2024-02-11T20:39:48.680Z,1.45
2024-02-11T20:42:18.082Z,1.30
2024-02-11T20:44:46.517Z,1.25
2024-02-11T20:47:15.397Z,1.20
2024-02-11T20:49:42.707Z,1.38
2024-02-11T20:52:10.915Z,1.40
2024-02-11T20:54:38.640Z,2.78
2024-02-11T20:57:07.872Z,1.20
2024-02-11T20:59:37.706Z,2.40
2024-02-11T21:02:05.467Z,1.63
2024-02-11T21:04:32.695Z,1.65
2024-02-11T21:07:00.893Z,4.28
2024-02-11T21:09:28.675Z,2.20
2024-02-11T21:11:57.503Z,2.15
2024-02-11T21:14:24.838Z,1.45
2024-02-11T21:16:52.166Z,1.45
2024-02-11T21:19:21.871Z,1.40
2024-02-11T21:21:49.743Z,1.30
2024-02-11T21:24:17.210Z,1.33
2024-02-11T21:26:44.549Z,1.30
2024-02-11T21:29:13.421Z,1.10
2024-02-11T21:31:40.848Z,1.20
2024-02-11T21:34:10.550Z,1.17
2024-02-11T21:36:38.140Z,1.00
2024-02-11T21:39:05.949Z,1.15
2024-02-11T21:41:34.871Z,1.17
2024-02-11T21:44:03.497Z,1.20
2024-02-11T21:46:30.929Z,1.30
2024-02-11T21:49:00.904Z,1.15
2024-02-11T21:51:29.540Z,1.10
2024-02-11T21:53:57.014Z,1.08
2024-02-11T21:56:24.368Z,0.90
2024-02-11T21:58:51.870Z,1.30
2024-02-11T22:01:21.261Z,1.00
2024-02-11T22:03:48.816Z,1.70
2024-02-11T22:06:16.385Z,1.70
2024-02-11T22:08:43.976Z,1.08
2024-02-11T22:11:11.589Z,1.10
2024-02-11T22:13:39.360Z,1.40
2024-02-11T22:16:09.091Z,1.15
2024-02-11T22:18:36.778Z,1.23
2024-02-11T22:21:04.877Z,1.20
2024-02-11T22:23:32.300Z,1.48
2024-02-11T22:26:01.446Z,1.50
2024-02-11T22:28:28.909Z,1.50
2024-02-11T22:30:56.685Z,1.25
2024-02-11T22:33:24.693Z,1.40
2024-02-11T22:35:53.795Z,1.40
2024-02-11T22:38:21.224Z,1.30
2024-02-11T22:40:48.649Z,1.50
2024-02-11T22:43:16.888Z,1.65
2024-02-11T22:45:44.906Z,1.40
2024-02-11T22:48:12.243Z,1.70
2024-02-11T22:50:39.691Z,1.40
2024-02-11T22:53:07.001Z,1.33
2024-02-11T22:55:34.638Z,1.70
2024-02-11T22:58:03.040Z,1.50
2024-02-11T23:00:33.474Z,1.50
2024-02-11T23:03:05.680Z,1.50
2024-02-11T23:05:39.405Z,1.30
2024-02-11T23:08:09.159Z,1.52
2024-02-11T23:10:37.678Z,1.52
2024-02-11T23:13:05.423Z,1.45
2024-02-11T23:15:33.971Z,1.50
2024-02-11T23:18:02.570Z,1.70
2024-02-11T23:20:30.686Z,1.30
2024-02-11T23:22:59.629Z,1.52
2024-02-11T23:25:28.339Z,2.20
2024-02-11T23:27:55.561Z,1.45
2024-02-11T23:30:25.755Z,1.52
2024-02-11T23:32:54.057Z,1.50
2024-02-11T23:35:21.624Z,1.30
2024-02-11T23:37:51.382Z,1.15
2024-02-11T23:40:18.870Z,1.60
2024-02-11T23:42:46.412Z,1.20
2024-02-11T23:45:16.331Z,1.50
2024-02-11T23:47:44.060Z,1.33
2024-02-11T23:50:15.253Z,1.40
2024-02-11T23:55:12.013Z,1.40
2024-02-11T23:57:41.873Z,1.55
